createdAt,value
2022-10-14T00:01:21.578Z,11.80
2022-10-14T00:03:51.788Z,11.80
2022-10-14T00:06:25.255Z,10.50
2022-10-14T00:08:54.275Z,12.00
2022-10-14T00:11:24.758Z,11.65
2022-10-14T00:13:56.747Z,10.98
2022-10-14T00:16:27.454Z,11.43
2022-10-14T00:18:55.884Z,12.82
2022-10-14T00:21:26.214Z,11.80
2022-10-14T00:23:56.362Z,11.77
2022-10-14T00:26:27.337Z,11.93
2022-10-14T00:28:55.750Z,12.82
2022-10-14T00:31:28.366Z,11.57
2022-10-14T00:33:57.876Z,11.93
2022-10-14T00:36:28.123Z,11.20
2022-10-14T00:38:57.829Z,11.75
2022-10-14T00:41:28.125Z,11.75
2022-10-14T00:44:00.202Z,11.32
2022-10-14T00:46:30.534Z,11.93
2022-10-14T00:49:07.215Z,11.13
2022-10-14T00:51:39.166Z,11.82
2022-10-14T00:54:08.362Z,11.20
2022-10-14T00:56:37.411Z,11.05
2022-10-14T00:59:09.596Z,10.90
2022-10-14T01:01:37.989Z,11.05
2022-10-14T01:04:06.387Z,11.57
2022-10-14T01:06:50.342Z,11.10
2022-10-14T01:09:25.411Z,11.20
2022-10-14T01:12:27.655Z,11.10
2022-10-14T01:14:59.744Z,10.93
2022-10-14T01:17:37.605Z,10.98
2022-10-14T01:20:28.673Z,10.85
2022-10-14T01:23:13.069Z,11.57
2022-10-14T01:25:54.014Z,10.98
2022-10-14T01:28:29.251Z,11.50
2022-10-14T01:31:03.063Z,11.15
2022-10-14T01:33:38.025Z,11.30
2022-10-14T01:36:11.382Z,10.88
2022-10-14T01:38:45.108Z,10.52
2022-10-14T01:41:20.040Z,10.93
2022-10-14T01:43:51.346Z,10.20
2022-10-14T01:46:24.052Z,9.68
2022-10-14T01:48:55.870Z,10.32
2022-10-14T01:51:29.578Z,10.48
2022-10-14T01:54:02.207Z,10.18
2022-10-14T01:56:34.971Z,10.45
2022-10-14T01:59:08.522Z,10.10
2022-10-14T02:01:38.301Z,11.07
2022-10-14T02:04:16.058Z,10.15
2022-10-14T02:06:49.577Z,10.65
2022-10-14T02:09:24.961Z,10.38
2022-10-14T02:12:12.508Z,10.48
2022-10-14T02:14:45.783Z,10.15
2022-10-14T02:17:21.659Z,10.70
2022-10-14T02:19:54.235Z,10.65
2022-10-14T02:22:29.954Z,10.38
2022-10-14T02:25:20.443Z,9.63
2022-10-14T02:27:51.487Z,9.80
2022-10-14T02:30:20.589Z,9.45
2022-10-14T02:32:59.794Z,9.25
2022-10-14T02:35:31.581Z,10.18
2022-10-14T02:38:00.831Z,9.98
2022-10-14T02:40:34.284Z,9.75
2022-10-14T02:43:02.984Z,9.13
2022-10-14T02:45:31.305Z,9.82
2022-10-14T02:48:02.394Z,10.68
2022-10-14T02:50:31.115Z,9.38
2022-10-14T02:52:59.418Z,9.50
2022-10-14T02:55:27.721Z,9.73
2022-10-14T02:57:56.158Z,9.73
2022-10-14T03:00:24.345Z,8.52
2022-10-14T03:02:54.383Z,9.48
2022-10-14T03:05:24.719Z,9.98
2022-10-14T03:07:55.134Z,9.35
2022-10-14T03:10:32.025Z,9.15
2022-10-14T03:13:00.229Z,9.68
2022-10-14T03:15:33.195Z,9.27
2022-10-14T03:18:01.328Z,9.57
2022-10-14T03:20:40.542Z,9.25
2022-10-14T03:23:10.433Z,9.57
2022-10-14T03:25:40.112Z,9.30
2022-10-14T03:28:11.574Z,9.55
2022-10-14T03:30:49.630Z,9.60
2022-10-14T03:33:33.678Z,9.07
2022-10-14T03:36:10.603Z,8.25
2022-10-14T03:38:45.891Z,8.50
2022-10-14T03:41:24.969Z,8.45
2022-10-14T03:43:54.366Z,8.13
2022-10-14T03:46:23.029Z,8.57
2022-10-14T03:48:54.031Z,8.25
2022-10-14T03:51:24.159Z,7.55
2022-10-14T03:53:55.444Z,7.78
2022-10-14T03:56:29.283Z,7.63
2022-10-14T03:58:58.893Z,8.02
2022-10-14T04:01:28.063Z,8.10
2022-10-14T04:04:16.646Z,7.57
2022-10-14T04:06:48.242Z,8.82
2022-10-14T04:09:20.367Z,8.68
2022-10-14T04:11:49.599Z,8.98
2022-10-14T04:14:47.229Z,9.60
2022-10-14T04:17:16.135Z,8.80
2022-10-14T04:19:45.302Z,9.38
2022-10-14T04:22:16.636Z,9.23
2022-10-14T04:24:48.411Z,8.45
2022-10-14T04:27:17.097Z,9.95
2022-10-14T04:29:55.346Z,10.20
2022-10-14T04:32:29.917Z,9.95
2022-10-14T04:34:58.440Z,9.82
2022-10-14T04:37:32.782Z,9.45
2022-10-14T04:40:06.153Z,9.68
2022-10-14T04:42:40.071Z,10.40
2022-10-14T04:45:17.117Z,10.38
2022-10-14T04:47:52.752Z,9.95
2022-10-14T04:50:24.716Z,9.85
2022-10-14T04:53:41.727Z,9.48
2022-10-14T04:56:33.715Z,9.80
2022-10-14T04:59:04.459Z,9.88
2022-10-14T05:01:52.289Z,10.10
2022-10-14T05:04:21.033Z,9.90
2022-10-14T05:06:51.428Z,9.43
2022-10-14T05:09:22.941Z,10.18
2022-10-14T05:11:52.107Z,9.80
2022-10-14T05:14:23.976Z,9.23
2022-10-14T05:17:04.481Z,9.65
2022-10-14T05:19:45.207Z,9.00
2022-10-14T05:22:26.009Z,9.37
2022-10-14T05:24:56.170Z,9.07
2022-10-14T05:27:24.782Z,9.55
2022-10-14T05:29:53.282Z,9.45
2022-10-14T05:32:21.761Z,8.80
2022-10-14T05:34:52.952Z,8.93
2022-10-14T05:37:29.315Z,8.90
2022-10-14T05:39:59.411Z,9.30
2022-10-14T05:42:28.601Z,9.05
2022-10-14T05:45:00.743Z,8.90
2022-10-14T05:47:31.817Z,8.15
2022-10-14T05:50:07.018Z,8.18
2022-10-14T05:52:35.727Z,8.35
2022-10-14T05:55:14.744Z,8.63
2022-10-14T05:57:44.674Z,8.90
2022-10-14T06:00:24.647Z,8.15
2022-10-14T06:02:58.593Z,8.45
2022-10-14T06:05:27.303Z,8.80
2022-10-14T06:07:55.643Z,9.93
2022-10-14T06:10:25.388Z,9.45
2022-10-14T06:12:53.736Z,9.68
2022-10-14T06:15:22.651Z,9.77
2022-10-14T06:17:51.419Z,10.20
2022-10-14T06:20:19.682Z,10.65
2022-10-14T06:22:47.763Z,10.80
2022-10-14T06:25:16.097Z,10.90
2022-10-14T06:27:45.590Z,11.70
2022-10-14T06:30:17.227Z,11.27
2022-10-14T06:32:45.535Z,11.88
2022-10-14T06:35:15.263Z,11.63
2022-10-14T06:37:46.164Z,12.85
2022-10-14T06:40:14.955Z,12.75
2022-10-14T06:42:43.433Z,12.32
2022-10-14T06:45:13.521Z,12.32
2022-10-14T06:47:42.111Z,12.63
2022-10-14T06:50:10.583Z,13.32
2022-10-14T06:52:39.032Z,11.75
2022-10-14T06:55:08.786Z,12.55
2022-10-14T06:57:37.081Z,12.68
2022-10-14T07:00:07.050Z,11.63
2022-10-14T07:02:41.808Z,12.27
2022-10-14T07:05:11.238Z,12.00
2022-10-14T07:07:39.771Z,11.90
2022-10-14T07:10:09.123Z,11.02
2022-10-14T07:12:38.225Z,12.07
2022-10-14T07:15:09.810Z,11.90
2022-10-14T07:17:39.621Z,11.32
2022-10-14T07:20:11.754Z,11.40
2022-10-14T07:22:40.684Z,11.07
2022-10-14T07:25:10.260Z,11.82
2022-10-14T07:27:41.255Z,11.48
2022-10-14T07:30:15.259Z,10.52
2022-10-14T07:32:50.523Z,11.38
2022-10-14T07:35:20.003Z,10.85
2022-10-14T07:37:50.485Z,10.68
2022-10-14T07:40:19.474Z,10.60
2022-10-14T07:42:47.974Z,10.23
2022-10-14T07:45:18.550Z,10.38
2022-10-14T07:47:49.926Z,10.48
2022-10-14T07:50:18.818Z,10.27
2022-10-14T07:52:47.220Z,10.48
2022-10-14T07:55:15.540Z,10.10
2022-10-14T07:57:44.138Z,10.77
2022-10-14T08:00:13.915Z,10.32
2022-10-14T08:02:45.472Z,10.50
2022-10-14T08:08:04.065Z,8.93
2022-10-14T08:10:33.256Z,8.60
2022-10-14T08:13:01.828Z,8.40
2022-10-14T08:15:33.855Z,8.18
2022-10-14T08:18:02.374Z,7.65
2022-10-14T08:20:32.403Z,7.72
2022-10-14T08:23:00.943Z,7.13
2022-10-14T08:25:30.777Z,7.00
2022-10-14T08:27:59.253Z,6.75
2022-10-14T08:30:27.552Z,7.10
2022-10-14T08:32:55.910Z,7.15
2022-10-14T08:35:24.559Z,6.78
2022-10-14T08:38:03.912Z,7.60
2022-10-14T08:40:54.886Z,7.22
2022-10-14T08:43:31.368Z,7.32
2022-10-14T08:46:07.548Z,7.05
2022-10-14T08:48:36.819Z,7.03
2022-10-14T08:51:10.554Z,7.10
2022-10-14T08:53:45.186Z,7.30
2022-10-14T08:56:15.594Z,7.45
2022-10-14T08:58:48.194Z,7.50
2022-10-14T09:01:23.376Z,7.55
2022-10-14T09:03:57.686Z,6.85
2022-10-14T09:06:28.545Z,6.85
2022-10-14T09:09:05.619Z,6.65
2022-10-14T09:11:41.042Z,6.80
2022-10-14T09:14:14.295Z,7.30
2022-10-14T09:16:46.700Z,6.72
2022-10-14T09:19:27.274Z,6.47
2022-10-14T09:21:56.803Z,5.97
2022-10-14T09:24:28.144Z,5.97
2022-10-14T09:27:04.229Z,5.53
2022-10-14T09:29:37.042Z,5.95
2022-10-14T09:32:08.854Z,5.38
2022-10-14T09:34:39.903Z,4.75
2022-10-14T09:37:25.193Z,5.35
2022-10-14T09:39:58.113Z,5.45
2022-10-14T09:42:31.853Z,5.78
2022-10-14T09:45:12.320Z,5.38
2022-10-14T09:47:52.405Z,5.93
2022-10-14T09:50:24.500Z,4.75
2022-10-14T09:52:56.853Z,4.93
2022-10-14T09:55:26.766Z,5.65
2022-10-14T09:58:07.848Z,5.28
2022-10-14T10:00:38.809Z,5.03
2022-10-14T10:03:09.903Z,4.82
2022-10-14T10:05:39.950Z,4.50
2022-10-14T10:08:18.296Z,4.35
2022-10-14T10:11:05.709Z,5.07
2022-10-14T10:13:46.450Z,5.18
2022-10-14T10:16:24.128Z,4.85
2022-10-14T10:18:55.205Z,4.90
2022-10-14T10:21:25.739Z,4.68
2022-10-14T10:23:58.062Z,4.38
2022-10-14T10:26:32.152Z,4.43
2022-10-14T10:29:02.672Z,3.90
2022-10-14T10:31:57.756Z,3.90
2022-10-14T10:35:03.439Z,4.13
2022-10-14T10:37:34.569Z,4.45
2022-10-14T10:40:28.572Z,3.67
2022-10-14T10:43:22.372Z,4.05
2022-10-14T10:46:07.542Z,3.30
2022-10-14T10:48:45.486Z,3.45
2022-10-14T10:51:18.096Z,3.55
2022-10-14T10:54:07.751Z,4.50
2022-10-14T10:56:43.838Z,3.78
2022-10-14T10:59:56.376Z,3.65
2022-10-14T11:02:54.988Z,3.33
2022-10-14T11:05:50.021Z,3.40
2022-10-14T11:09:10.117Z,3.80
2022-10-14T11:12:05.521Z,3.65
2022-10-14T11:15:12.639Z,3.53
2022-10-14T11:17:50.116Z,4.07
2022-10-14T11:20:28.829Z,3.85
2022-10-14T11:23:15.804Z,3.83
2022-10-14T11:25:51.200Z,3.67
2022-10-14T11:28:26.483Z,3.95
2022-10-14T11:31:12.348Z,3.70
2022-10-14T11:33:56.677Z,3.88
2022-10-14T11:36:33.766Z,3.70
2022-10-14T11:39:12.523Z,4.38
2022-10-14T11:42:01.416Z,3.67
2022-10-14T11:47:10.071Z,3.55
2022-10-14T11:49:47.173Z,3.78
2022-10-14T11:52:22.538Z,3.85
2022-10-14T11:54:56.837Z,4.10
2022-10-14T11:57:33.906Z,3.85
2022-10-14T12:00:40.224Z,3.95
2022-10-14T12:03:17.161Z,3.92
2022-10-14T12:05:52.378Z,4.07
2022-10-14T12:08:30.379Z,4.25
2022-10-14T12:11:08.161Z,4.13
2022-10-14T12:13:42.710Z,4.22
2022-10-14T12:16:15.348Z,3.90
2022-10-14T12:18:45.717Z,4.00
2022-10-14T12:21:25.438Z,4.03
2022-10-14T12:24:00.572Z,3.80
2022-10-14T12:26:47.957Z,3.63
2022-10-14T12:29:19.917Z,4.20
2022-10-14T12:31:51.836Z,4.03
2022-10-14T12:34:34.904Z,3.83
2022-10-14T12:37:52.007Z,3.60
2022-10-14T12:40:30.201Z,3.50
2022-10-14T12:43:15.324Z,3.60
2022-10-14T12:45:56.225Z,3.65
2022-10-14T12:48:26.471Z,3.90
2022-10-14T12:51:07.472Z,3.70
2022-10-14T12:53:37.521Z,4.15
2022-10-14T12:56:10.930Z,4.03
2022-10-14T12:58:44.828Z,3.85
2022-10-14T13:01:18.730Z,4.00
2022-10-14T13:03:54.783Z,3.78
2022-10-14T13:06:44.414Z,3.47
2022-10-14T13:09:39.753Z,3.83
2022-10-14T13:12:44.956Z,3.78
2022-10-14T13:15:46.544Z,3.58
2022-10-14T13:18:52.578Z,3.85
2022-10-14T13:21:54.025Z,3.67
2022-10-14T13:24:27.034Z,3.53
2022-10-14T13:27:08.308Z,3.70
2022-10-14T13:29:54.236Z,4.28
2022-10-14T13:32:31.910Z,3.88
2022-10-14T13:35:10.957Z,4.65
2022-10-14T13:37:44.913Z,4.43
2022-10-14T13:40:22.598Z,4.57
2022-10-14T13:42:54.987Z,5.18
2022-10-14T13:45:29.518Z,4.10
2022-10-14T13:47:58.508Z,4.47
2022-10-14T13:50:37.919Z,4.00
2022-10-14T13:53:16.365Z,4.55
2022-10-14T13:55:51.544Z,4.78
2022-10-14T13:58:23.362Z,4.97
2022-10-14T14:01:01.620Z,5.03
2022-10-14T14:03:33.579Z,5.32
2022-10-14T14:06:10.979Z,5.40
2022-10-14T14:08:48.167Z,5.50
2022-10-14T14:11:22.788Z,5.50
2022-10-14T14:14:00.835Z,5.38
2022-10-14T14:16:35.471Z,5.82
2022-10-14T14:19:09.590Z,5.50
2022-10-14T14:21:40.401Z,5.20
2022-10-14T14:24:19.430Z,5.78
2022-10-14T14:26:56.628Z,5.72
2022-10-14T14:29:30.526Z,5.75
2022-10-14T14:32:06.787Z,5.68
2022-10-14T14:34:41.295Z,5.50
2022-10-14T14:37:40.274Z,5.72
2022-10-14T14:40:10.772Z,5.93
2022-10-14T14:42:41.148Z,5.90
2022-10-14T14:45:16.834Z,5.57
2022-10-14T14:47:45.985Z,5.90
2022-10-14T14:50:29.968Z,7.03
2022-10-14T14:53:04.140Z,5.15
2022-10-14T14:55:43.033Z,6.95
2022-10-14T14:58:27.775Z,4.72
2022-10-14T15:00:58.575Z,5.78
2022-10-14T15:03:29.060Z,4.65
2022-10-14T15:06:00.676Z,4.43
2022-10-14T15:08:33.233Z,5.05
2022-10-14T15:11:02.782Z,4.80
2022-10-14T15:13:47.713Z,4.65
2022-10-14T15:16:34.065Z,4.55
2022-10-14T15:19:28.695Z,5.32
2022-10-14T15:22:28.655Z,5.28
2022-10-14T15:25:18.985Z,6.05
2022-10-14T15:27:53.425Z,6.18
2022-10-14T15:30:27.309Z,6.80
2022-10-14T15:33:01.261Z,4.70
2022-10-14T15:35:30.520Z,4.68
2022-10-14T15:37:59.142Z,4.68
2022-10-14T15:40:34.346Z,4.38
2022-10-14T15:43:02.863Z,4.78
2022-10-14T15:45:31.442Z,4.72
2022-10-14T15:48:05.332Z,4.63
2022-10-14T15:50:36.150Z,4.82
2022-10-14T15:53:04.545Z,4.70
2022-10-14T15:55:35.312Z,4.93
2022-10-14T15:58:05.499Z,4.82
2022-10-14T16:00:35.530Z,4.93
2022-10-14T16:03:07.723Z,4.93
2022-10-14T16:05:38.726Z,6.07
2022-10-14T16:08:13.784Z,5.60
2022-10-14T16:10:44.651Z,6.05
2022-10-14T16:13:14.312Z,6.55
2022-10-14T16:15:49.120Z,5.85
2022-10-14T16:18:21.518Z,5.85
2022-10-14T16:20:55.423Z,6.03
2022-10-14T16:23:29.571Z,6.45
2022-10-14T16:26:05.406Z,6.43
2022-10-14T16:28:35.829Z,6.30
2022-10-14T16:31:06.035Z,7.03
2022-10-14T16:33:35.205Z,6.85
2022-10-14T16:36:06.932Z,7.13
2022-10-14T16:38:35.471Z,6.30
2022-10-14T16:41:05.116Z,6.32
2022-10-14T16:43:33.587Z,6.30
2022-10-14T16:46:05.203Z,7.25
2022-10-14T16:48:35.024Z,6.80
2022-10-14T16:51:03.727Z,6.55
2022-10-14T16:53:42.121Z,6.28
2022-10-14T16:56:33.480Z,6.22
2022-10-14T16:59:02.480Z,6.63
2022-10-14T17:01:31.462Z,5.95
2022-10-14T17:04:00.343Z,6.43
2022-10-14T17:06:28.891Z,6.32
2022-10-14T17:08:57.774Z,5.95
2022-10-14T17:11:28.267Z,5.80
2022-10-14T17:13:57.411Z,5.90
2022-10-14T17:16:30.905Z,6.20
2022-10-14T17:19:00.547Z,5.80
2022-10-14T17:21:29.345Z,6.43
2022-10-14T17:24:01.394Z,5.97
2022-10-14T17:26:34.517Z,5.75
2022-10-14T17:29:03.346Z,5.18
2022-10-14T17:31:32.074Z,5.60
2022-10-14T17:34:04.024Z,4.88
2022-10-14T17:36:32.991Z,5.88
2022-10-14T17:39:02.506Z,5.57
2022-10-14T17:41:35.278Z,5.70
2022-10-14T17:44:04.840Z,5.53
2022-10-14T17:46:39.143Z,5.65
2022-10-14T17:49:11.068Z,5.10
2022-10-14T17:51:45.475Z,5.40
2022-10-14T17:54:14.885Z,5.28
2022-10-14T17:56:51.477Z,5.05
2022-10-14T18:06:48.999Z,4.88
2022-10-14T18:09:17.133Z,5.38
2022-10-14T18:14:42.170Z,4.00
2022-10-14T18:17:12.828Z,4.00
2022-10-14T18:19:42.080Z,3.38
2022-10-14T18:22:11.600Z,3.30
2022-10-14T18:24:43.705Z,3.03
2022-10-14T18:27:14.524Z,2.72
2022-10-14T18:29:50.060Z,2.75
2022-10-14T18:32:20.244Z,2.80
2022-10-14T18:34:50.697Z,2.83
2022-10-14T18:37:18.910Z,2.33
2022-10-14T18:39:47.330Z,1.90
2022-10-14T18:42:18.440Z,2.00
2022-10-14T18:44:50.578Z,2.38
2022-10-14T18:47:19.416Z,2.50
2022-10-14T18:49:59.861Z,2.65
2022-10-14T18:52:28.746Z,2.65
2022-10-14T18:54:58.627Z,2.63
2022-10-14T18:57:27.320Z,2.88
2022-10-14T18:59:57.753Z,2.85
2022-10-14T19:02:25.927Z,3.13
2022-10-14T19:04:56.020Z,3.30
2022-10-14T19:07:24.251Z,2.97
2022-10-14T19:09:54.165Z,3.53
2022-10-14T19:12:43.696Z,3.40
2022-10-14T19:15:13.889Z,4.07
2022-10-14T19:17:42.846Z,4.45
2022-10-14T19:20:11.722Z,5.00
2022-10-14T19:22:45.348Z,5.13
2022-10-14T19:25:13.768Z,5.18
2022-10-14T19:27:43.635Z,5.35
2022-10-14T19:30:13.815Z,5.07
2022-10-14T19:32:42.003Z,4.50
2022-10-14T19:35:10.684Z,4.10
2022-10-14T19:37:39.031Z,4.25
2022-10-14T19:40:08.391Z,3.70
2022-10-14T19:42:36.582Z,4.38
2022-10-14T19:45:05.974Z,3.80
2022-10-14T19:47:36.135Z,3.38
2022-10-14T19:50:05.969Z,3.30
2022-10-14T19:52:34.072Z,3.05
2022-10-14T19:55:02.602Z,2.67
2022-10-14T19:57:30.802Z,2.60
2022-10-14T19:59:59.032Z,2.45
2022-10-14T20:02:27.240Z,2.65
2022-10-14T20:04:56.699Z,2.75
2022-10-14T20:07:25.311Z,2.42
2022-10-14T20:09:54.194Z,2.72
2022-10-14T20:12:23.179Z,2.80
2022-10-14T20:14:51.649Z,2.20
2022-10-14T20:19:53.318Z,2.28
2022-10-14T20:22:23.280Z,2.47
2022-10-14T20:24:52.134Z,2.60
2022-10-14T20:27:20.480Z,2.78
2022-10-14T20:29:48.915Z,2.72
2022-10-14T20:32:18.023Z,2.63
2022-10-14T20:34:46.238Z,2.92
2022-10-14T20:37:14.926Z,3.10
2022-10-14T20:39:44.667Z,3.30
2022-10-14T20:42:13.204Z,3.38
2022-10-14T20:44:41.918Z,3.55
2022-10-14T20:47:10.698Z,3.78
2022-10-14T20:49:40.745Z,3.22
2022-10-14T20:52:10.193Z,3.78
2022-10-14T20:54:38.726Z,3.10
2022-10-14T20:57:10.596Z,3.22
2022-10-14T20:59:41.410Z,3.30
2022-10-14T21:02:17.365Z,3.20
2022-10-14T21:04:49.748Z,2.97
2022-10-14T21:07:20.053Z,2.58
2022-10-14T21:09:50.037Z,2.55
2022-10-14T21:12:21.188Z,2.40
2022-10-14T21:14:50.252Z,2.38
2022-10-14T21:17:20.544Z,2.20
2022-10-14T21:19:49.972Z,2.65
2022-10-14T21:22:18.179Z,2.72
2022-10-14T21:24:46.371Z,2.60
2022-10-14T21:27:17.183Z,2.50
2022-10-14T21:29:49.215Z,2.03
2022-10-14T21:32:17.546Z,1.90
2022-10-14T21:34:45.805Z,2.17
2022-10-14T21:37:15.460Z,2.20
2022-10-14T21:39:43.734Z,2.40
2022-10-14T21:42:14.261Z,2.20
2022-10-14T21:44:43.995Z,1.92
2022-10-14T21:47:14.352Z,1.95
2022-10-14T21:49:42.761Z,1.90
2022-10-14T21:52:11.251Z,1.50
2022-10-14T21:54:40.116Z,1.70
2022-10-14T21:57:08.437Z,1.67
2022-10-14T21:59:36.640Z,1.58
2022-10-14T22:02:04.999Z,1.75
2022-10-14T22:04:37.531Z,1.30
2022-10-14T22:07:06.973Z,1.48
2022-10-14T22:09:35.338Z,1.48
2022-10-14T22:12:03.812Z,1.15
2022-10-14T22:14:31.979Z,1.10
2022-10-14T22:17:00.274Z,1.48
2022-10-14T22:19:28.646Z,1.40
2022-10-14T22:21:59.163Z,1.00
2022-10-14T22:24:27.378Z,1.27
2022-10-14T22:26:55.615Z,1.15
2022-10-14T22:29:23.803Z,1.20
2022-10-14T22:31:51.920Z,1.00
2022-10-14T22:34:20.458Z,1.33
2022-10-14T22:36:48.639Z,1.10
2022-10-14T22:39:18.503Z,1.05
2022-10-14T22:41:46.848Z,1.10
2022-10-14T22:44:14.979Z,1.15
2022-10-14T22:46:43.365Z,1.30
2022-10-14T22:49:11.718Z,1.15
2022-10-14T22:51:41.706Z,1.10
2022-10-14T22:54:10.532Z,0.90
2022-10-14T22:56:40.799Z,0.90
2022-10-14T22:59:11.103Z,0.95
2022-10-14T23:01:40.128Z,1.08
2022-10-14T23:04:08.335Z,1.20
2022-10-14T23:06:36.666Z,1.27
2022-10-14T23:09:05.859Z,1.48
2022-10-14T23:11:34.031Z,1.05
2022-10-14T23:14:07.033Z,1.45
2022-10-14T23:16:36.240Z,1.50
2022-10-14T23:19:04.732Z,1.50
2022-10-14T23:21:34.381Z,1.38
2022-10-14T23:24:04.442Z,0.90
2022-10-14T23:26:35.373Z,1.00
2022-10-14T23:29:07.538Z,1.33
2022-10-14T23:31:37.418Z,1.00
2022-10-14T23:34:07.982Z,1.20
2022-10-14T23:36:36.212Z,1.20
2022-10-14T23:39:05.013Z,1.20
2022-10-14T23:41:36.930Z,1.38
2022-10-14T23:44:07.021Z,1.15
2022-10-14T23:46:35.321Z,1.20
2022-10-14T23:49:21.181Z,1.20
2022-10-14T23:51:52.550Z,1.13
2022-10-14T23:54:20.848Z,1.30
2022-10-14T23:56:49.222Z,1.00
2022-10-14T23:59:18.766Z,1.52
